Terminal Aerodrome Forecast
Issued by NWS

Home | Current Version | Previous Version | Text Only | Print | Product List | Glossary On
Versions: 1 2 3 4 5 6 7 8 9 10 11 12 13 14 15 16 17
406
FTAK31 PAJN 282320
TAFAYA
TAF
PAYA 282320Z 2900/2924 11008KT 6SM -SHRA BR BKN025 OVC035
      TEMPO 2900/2904 BKN009 OVC020
     FM290400 10008KT P6SM -SHRA OVC035 WS020/13030KT
     FM291200 11008KT 5SM -SHRA BR BKN015 OVC025 WS020/14035KT
     FM292100 12008KT 4SM -SHRA BR OVC015
      AMD LTD TO CLD VIS AND WIND 2901/2909=

USA.gov is the U.S. government's official web portal to all federal, state and local government web resources and services.